Time;durP1;ratioP1;P1;durP2;ratioP2;P2;SDS_P1;SDS_P2;PMS_P1;PMS_P2;Temp;Humidity;BMP_temperature;BMP_pressure;BME280_temperature;BME280_humidity;BME280_pressure;Samples;Min_cycle;Max_cycle;Signal;HPM_P1;HPM_P2
2023/10/11 00:02:59;;;;;;;;;;;13.60;99.90;;;;;;5058528;28;19909;-58
2023/10/11 00:05:36;;;;;;;;;;;13.60;99.90;;;;;;5058896;28;19909;-58
2023/10/11 00:08:04;;;;;;;;;;;13.50;99.90;;;;;;5058012;28;19917;-59
2023/10/11 00:10:31;;;;;;;;;;;13.50;99.90;;;;;;5058461;28;20392;-58
2023/10/11 00:12:58;;;;;;;;;;;13.40;99.90;;;;;;5058359;28;19908;-58
2023/10/11 00:15:29;;;;;;;;;;;13.30;99.90;;;;;;5058137;28;19908;-58
2023/10/11 00:17:56;;;;;;;;;;;13.20;99.90;;;;;;5058798;28;19908;-58
2023/10/11 00:20:34;;;;;;;;;;;13.10;99.90;;;;;;5058243;28;19904;-58
2023/10/11 00:23:00;;;;;;;;;;;13.10;99.90;;;;;;5056651;28;19923;-59
2023/10/11 00:25:27;;;;;;;;;;;13.10;99.90;;;;;;5058157;28;19905;-58
2023/10/11 00:27:58;;;;;;;;;;;13.10;99.90;;;;;;5058355;28;19908;-58
2023/10/11 00:30:29;;;;;;;;;;;13.10;99.90;;;;;;5057855;28;19916;-58
2023/10/11 00:32:58;;;;;;;;;;;13.10;99.90;;;;;;5058099;28;20329;-58
2023/10/11 00:35:24;;;;;;;;;;;13.10;99.90;;;;;;5056733;28;20327;-58
2023/10/11 00:37:54;;;;;;;;;;;13.00;99.90;;;;;;5056415;28;19973;-58
2023/10/11 00:40:32;;;;;;;;;;;13.00;99.90;;;;;;5057648;28;19923;-58
2023/10/11 00:42:58;;;;;;;;;;;13.00;99.90;;;;;;5057834;28;19908;-58
2023/10/11 00:45:26;;;;;;;;;;;12.90;99.90;;;;;;5056263;28;19908;-58
2023/10/11 00:47:53;;;;;;;;;;;12.80;99.90;;;;;;5056559;28;19913;-58
2023/10/11 00:50:21;;;;;;;;;;;12.80;99.90;;;;;;5057531;28;19909;-58
2023/10/11 00:52:48;;;;;;;;;;;12.70;99.90;;;;;;5057219;28;20270;-58
2023/10/11 00:55:21;;;;;;;;;;;12.70;99.90;;;;;;5056309;28;19908;-58
2023/10/11 00:57:49;;;;;;;;;;;12.80;99.90;;;;;;5057693;28;19909;-58
2023/10/11 01:00:21;;;;;;;;;;;12.80;99.90;;;;;;5057306;28;19908;-58
2023/10/11 01:02:48;;;;;;;;;;;12.70;99.90;;;;;;5056449;28;19926;-58
2023/10/11 01:05:14;;;;;;;;;;;12.60;99.90;;;;;;5057460;28;19913;-58
2023/10/11 01:07:40;;;;;;;;;;;12.60;99.90;;;;;;5056983;28;19913;-58
2023/10/11 01:10:06;;;;;;;;;;;12.60;99.90;;;;;;5057428;28;19909;-58
2023/10/11 01:12:32;;;;;;;;;;;12.60;99.90;;;;;;5057090;28;19919;-58
2023/10/11 01:14:58;;;;;;;;;;;12.50;99.90;;;;;;5055738;28;19909;-58
2023/10/11 01:17:26;;;;;;;;;;;12.40;99.90;;;;;;5057204;28;19905;-58
2023/10/11 01:19:52;;;;;;;;;;;12.40;99.90;;;;;;5057136;28;19919;-58
2023/10/11 01:22:19;;;;;;;;;;;12.40;99.90;;;;;;5038720;28;19974;-58
2023/10/11 01:24:50;;;;;;;;;;;12.30;99.90;;;;;;5057016;28;19919;-58
2023/10/11 01:27:17;;;;;;;;;;;12.40;99.90;;;;;;5039189;28;19916;-58
2023/10/11 01:29:43;;;;;;;;;;;12.30;99.90;;;;;;5056745;28;19908;-58
2023/10/11 01:32:10;;;;;;;;;;;12.30;99.90;;;;;;5038927;28;19909;-58
2023/10/11 01:34:39;;;;;;;;;;;12.30;99.90;;;;;;5056791;28;19955;-58
2023/10/11 01:37:06;;;;;;;;;;;12.30;99.90;;;;;;5056842;28;20347;-58
2023/10/11 01:39:32;;;;;;;;;;;12.30;99.90;;;;;;5056579;28;19916;-58
2023/10/11 01:41:59;;;;;;;;;;;12.30;99.90;;;;;;5056781;28;19908;-58
2023/10/11 01:44:26;;;;;;;;;;;12.30;99.90;;;;;;5056306;28;19990;-58
2023/10/11 01:46:52;;;;;;;;;;;12.30;99.90;;;;;;5056600;28;19916;-58
2023/10/11 01:49:19;;;;;;;;;;;12.20;99.90;;;;;;5038772;28;20365;-58
2023/10/11 01:51:48;;;;;;;;;;;12.10;99.90;;;;;;5056176;28;19913;-58
2023/10/11 01:54:23;;;;;;;;;;;12.10;99.90;;;;;;5056454;28;20003;-58
2023/10/11 01:56:52;;;;;;;;;;;12.10;99.90;;;;;;5038832;28;19915;-58
2023/10/11 01:59:18;;;;;;;;;;;12.00;99.90;;;;;;5056168;28;19909;-58
2023/10/11 02:01:55;;;;;;;;;;;12.00;99.90;;;;;;5038331;28;20255;-58
2023/10/11 02:04:20;;;;;;;;;;;12.00;99.90;;;;;;5056104;28;19935;-58
2023/10/11 02:06:49;;;;;;;;;;;12.00;99.90;;;;;;5056045;28;20321;-58
2023/10/11 02:09:20;;;;;;;;;;;12.10;99.90;;;;;;5038404;28;19916;-58
2023/10/11 02:11:45;;;;;;;;;;;12.10;99.90;;;;;;5056126;28;19909;-58
2023/10/11 02:14:13;;;;;;;;;;;12.00;99.90;;;;;;5037400;28;19911;-58
2023/10/11 02:16:39;;;;;;;;;;;11.90;99.90;;;;;;5038131;28;19912;-58
2023/10/11 02:19:05;;;;;;;;;;;11.90;99.90;;;;;;5056159;28;20042;-58
2023/10/11 02:21:36;;;;;;;;;;;11.80;99.90;;;;;;5056083;28;19920;-58
2023/10/11 02:24:04;;;;;;;;;;;11.80;99.90;;;;;;5054844;28;20055;-58
2023/10/11 02:26:34;;;;;;;;;;;11.80;99.90;;;;;;5055901;28;19920;-58
2023/10/11 02:29:00;;;;;;;;;;;11.80;99.90;;;;;;5055806;28;20370;-58
2023/10/11 02:31:28;;;;;;;;;;;11.70;99.90;;;;;;5055884;28;19979;-58
2023/10/11 02:34:03;;;;;;;;;;;11.60;99.90;;;;;;5056159;28;19908;-58
2023/10/11 02:36:34;;;;;;;;;;;11.60;99.90;;;;;;5055783;28;20396;-58
2023/10/11 02:39:00;;;;;;;;;;;11.60;99.90;;;;;;5055564;28;19932;-58
2023/10/11 02:41:26;;;;;;;;;;;11.50;99.90;;;;;;5054438;28;19904;-58
2023/10/11 02:43:52;;;;;;;;;;;11.50;99.90;;;;;;5055576;28;20251;-58
2023/10/11 02:46:22;;;;;;;;;;;11.50;99.90;;;;;;5055835;28;19970;-58
2023/10/11 02:49:06;;;;;;;;;;;11.50;99.90;;;;;;5054617;28;19909;-58
2023/10/11 02:51:33;;;;;;;;;;;11.50;99.90;;;;;;5055506;28;19936;-58
2023/10/11 02:53:59;;;;;;;;;;;11.40;99.90;;;;;;5055976;28;19909;-58
2023/10/11 02:56:25;;;;;;;;;;;11.40;99.90;;;;;;5055407;28;19908;-59
2023/10/11 02:58:52;;;;;;;;;;;11.40;99.90;;;;;;5055741;28;19912;-58
2023/10/11 03:01:20;;;;;;;;;;;11.40;99.90;;;;;;5055568;28;20341;-58
2023/10/11 03:03:48;;;;;;;;;;;11.30;99.90;;;;;;5037286;28;19939;-58
2023/10/11 03:06:14;;;;;;;;;;;11.30;99.90;;;;;;5054344;28;19915;-58
2023/10/11 03:08:43;;;;;;;;;;;11.30;99.90;;;;;;5055228;28;20004;-58
2023/10/11 03:11:15;;;;;;;;;;;11.20;99.90;;;;;;5054047;28;19909;-58
2023/10/11 03:13:43;;;;;;;;;;;11.30;99.90;;;;;;5054074;28;19935;-58
2023/10/11 03:16:12;;;;;;;;;;;11.20;99.90;;;;;;5054094;28;20350;-58
2023/10/11 03:18:39;;;;;;;;;;;11.20;99.90;;;;;;5055586;28;19908;-58
2023/10/11 03:21:17;;;;;;;;;;;11.10;99.90;;;;;;5055419;28;19913;-58
2023/10/11 03:23:55;;;;;;;;;;;11.00;99.90;;;;;;5055453;28;20435;-58
2023/10/11 03:26:39;;;;;;;;;;;11.00;99.90;;;;;;5056755;28;19909;-58
2023/10/11 03:29:10;;;;;;;;;;;11.00;99.90;;;;;;5059285;28;19912;-58
2023/10/11 03:31:42;;;;;;;;;;;11.00;99.90;;;;;;5059189;28;19990;-58
2023/10/11 03:34:11;;;;;;;;;;;11.00;99.90;;;;;;5059067;28;19916;-58
2023/10/11 03:36:43;;;;;;;;;;;11.00;99.90;;;;;;5059191;28;19909;-58
2023/10/11 03:39:10;;;;;;;;;;;11.00;99.90;;;;;;5058926;28;20312;-58
2023/10/11 03:41:44;;;;;;;;;;;11.00;99.90;;;;;;5058682;28;19959;-58
2023/10/11 03:44:10;;;;;;;;;;;11.00;99.90;;;;;;5057759;28;19916;-58
2023/10/11 03:46:36;;;;;;;;;;;11.00;99.90;;;;;;5058942;28;19909;-58
2023/10/11 03:49:14;;;;;;;;;;;11.10;99.90;;;;;;5058767;28;19963;-58
2023/10/11 03:51:46;;;;;;;;;;;11.00;99.90;;;;;;5058775;28;19909;-58
2023/10/11 03:54:18;;;;;;;;;;;11.00;99.90;;;;;;5058904;28;19912;-58
2023/10/11 03:56:45;;;;;;;;;;;11.00;99.90;;;;;;5058589;28;20263;-58
2023/10/11 03:59:12;;;;;;;;;;;10.90;99.90;;;;;;5058719;28;20362;-58
2023/10/11 04:01:38;;;;;;;;;;;10.80;99.90;;;;;;5058685;28;20346;-58
2023/10/11 04:04:05;;;;;;;;;;;10.90;99.90;;;;;;5058371;28;19920;-58
2023/10/11 04:06:34;;;;;;;;;;;10.90;99.90;;;;;;5058248;28;19913;-58
2023/10/11 04:09:03;;;;;;;;;;;10.90;99.90;;;;;;5058440;28;19956;-58
2023/10/11 04:11:46;;;;;;;;;;;10.80;99.90;;;;;;5058292;28;19912;-58
2023/10/11 04:14:23;;;;;;;;;;;10.80;99.90;;;;;;5058288;28;19908;-58
2023/10/11 04:16:52;;;;;;;;;;;10.90;99.90;;;;;;5058327;28;19951;-58
2023/10/11 04:19:21;;;;;;;;;;;10.90;99.90;;;;;;5058094;28;19909;-58
2023/10/11 04:24:19;;;;;;;;;;;11.00;99.90;;;;;;5058292;28;19917;-58
2023/10/11 04:26:56;;;;;;;;;;;11.00;99.90;;;;;;5057942;28;19909;-58
2023/10/11 04:29:30;;;;;;;;;;;11.00;99.90;;;;;;5058163;28;19912;-58
2023/10/11 04:34:32;;;;;;;;;;;10.80;99.90;;;;;;5057880;28;19909;-58
2023/10/11 04:37:07;;;;;;;;;;;10.70;99.90;;;;;;5057974;28;19958;-58
2023/10/11 04:39:49;;;;;;;;;;;10.70;99.90;;;;;;5057644;28;19920;-58
2023/10/11 04:42:16;;;;;;;;;;;10.70;99.90;;;;;;5057578;28;19908;-58
2023/10/11 04:44:42;;;;;;;;;;;10.70;99.90;;;;;;5057761;28;19917;-58
2023/10/11 04:47:11;;;;;;;;;;;10.60;99.90;;;;;;5057941;28;20046;-58
2023/10/11 04:49:37;;;;;;;;;;;10.60;99.90;;;;;;5057983;28;19908;-58
2023/10/11 04:52:13;;;;;;;;;;;10.50;99.90;;;;;;5057491;28;19908;-58
2023/10/11 04:54:53;;;;;;;;;;;10.50;99.90;;;;;;5057674;28;20277;-58
2023/10/11 04:58:12;;;;;;;;;;;10.50;99.90;;;;;;5057411;28;19913;-58
2023/10/11 05:00:11;;;;;;;;;;;10.50;99.90;;;;;;5046806;28;19915;-58
2023/10/11 05:02:38;;;;;;;;;;;10.50;99.90;;;;;;5057192;28;20362;-58
2023/10/11 05:05:10;;;;;;;;;;;10.60;99.90;;;;;;5057408;28;19912;-58
2023/10/11 05:07:42;;;;;;;;;;;10.60;99.90;;;;;;5057102;28;19995;-58
2023/10/11 05:13:05;;;;;;;;;;;10.60;99.90;;;;;;5057125;28;19912;-58
2023/10/11 05:15:42;;;;;;;;;;;10.60;99.90;;;;;;5057237;28;19912;-58
2023/10/11 05:18:09;;;;;;;;;;;10.50;99.90;;;;;;5056334;28;20370;-58
2023/10/11 05:23:06;;;;;;;;;;;10.90;99.90;;;;;;5055222;28;19938;-58
2023/10/11 05:25:56;;;;;;;;;;;11.30;99.90;;;;;;5054496;28;19919;-58
2023/10/11 05:36:40;;;;;;;;;;;13.00;99.90;;;;;;5056722;28;19944;-58
2023/10/11 05:50:50;;;;;;;;;;;14.00;99.90;;;;;;5045882;28;19909;-58
2023/10/11 05:52:55;;;;;;;;;;;16.30;99.90;;;;;;5055256;28;19936;-58
2023/10/11 05:55:24;;;;;;;;;;;16.10;99.90;;;;;;5037517;28;19908;-58
2023/10/11 05:57:51;;;;;;;;;;;16.60;98.00;;;;;;5055559;28;19909;-58
2023/10/11 06:00:26;;;;;;;;;;;17.00;97.30;;;;;;5055226;28;20345;-59
2023/10/11 06:02:52;;;;;;;;;;;16.70;96.20;;;;;;5055614;28;19912;-58
2023/10/11 06:05:23;;;;;;;;;;;16.80;95.40;;;;;;5055713;28;19909;-58
2023/10/11 06:08:00;;;;;;;;;;;16.50;96.40;;;;;;5055918;28;20366;-59
2023/10/11 06:10:35;;;;;;;;;;;16.70;96.50;;;;;;5052385;28;19913;-59
2023/10/11 06:13:02;;;;;;;;;;;16.90;95.90;;;;;;5038297;28;19912;-58
2023/10/11 06:15:28;;;;;;;;;;;17.00;95.40;;;;;;5056005;28;19995;-58
2023/10/11 06:17:55;;;;;;;;;;;16.50;96.70;;;;;;5055734;28;19997;-58
2023/10/11 06:20:26;;;;;;;;;;;16.70;96.70;;;;;;5053140;28;19909;-58
2023/10/11 06:22:53;;;;;;;;;;;17.00;97.00;;;;;;5055958;28;19912;-58
2023/10/11 06:25:40;;;;;;;;;;;17.10;96.80;;;;;;5047024;28;19913;-58
2023/10/11 06:28:15;;;;;;;;;;;16.90;96.20;;;;;;5054598;28;19909;-58
2023/10/11 06:30:47;;;;;;;;;;;17.50;95.90;;;;;;5043019;28;20467;-58
2023/10/11 06:33:13;;;;;;;;;;;17.70;96.30;;;;;;5051411;28;19908;-58
2023/10/11 06:35:49;;;;;;;;;;;18.00;95.20;;;;;;5055743;28;19912;-58
2023/10/11 06:38:17;;;;;;;;;;;18.20;94.80;;;;;;5054145;28;20076;-58
2023/10/11 06:40:54;;;;;;;;;;;18.40;94.70;;;;;;5053397;28;19913;-59
2023/10/11 06:43:20;;;;;;;;;;;18.80;94.70;;;;;;5055522;28;19915;-58
2023/10/11 06:45:49;;;;;;;;;;;19.20;92.40;;;;;;5053755;28;19909;-59
2023/10/11 06:48:15;;;;;;;;;;;19.30;91.60;;;;;;5055165;28;20332;-59
2023/10/11 06:50:41;;;;;;;;;;;19.20;91.60;;;;;;5052997;28;19963;-58
2023/10/11 06:53:09;;;;;;;;;;;19.40;90.90;;;;;;5049194;28;20179;-59
2023/10/11 06:55:39;;;;;;;;;;;19.50;91.20;;;;;;5054973;28;20381;-59
2023/10/11 06:58:09;;;;;;;;;;;19.70;90.30;;;;;;5055587;28;19908;-59
2023/10/11 07:00:38;;;;;;;;;;;19.90;89.50;;;;;;5053635;28;19920;-59
2023/10/11 07:03:06;;;;;;;;;;;20.40;87.10;;;;;;5057614;28;19916;-59
2023/10/11 07:05:40;;;;;;;;;;;20.50;84.90;;;;;;5057930;28;19921;-59
2023/10/11 07:08:09;;;;;;;;;;;20.10;87.70;;;;;;5059071;28;19912;-59
2023/10/11 07:10:40;;;;;;;;;;;20.80;84.80;;;;;;5052747;28;19909;-59
2023/10/11 07:13:12;;;;;;;;;;;21.30;82.10;;;;;;5050646;28;19915;-59
2023/10/11 07:15:42;;;;;;;;;;;21.50;79.90;;;;;;5046796;28;19985;-59
2023/10/11 07:18:10;;;;;;;;;;;21.50;80.70;;;;;;5058447;28;19909;-59
2023/10/11 07:20:48;;;;;;;;;;;21.90;77.60;;;;;;5059146;28;20000;-59
2023/10/11 07:23:19;;;;;;;;;;;22.20;77.00;;;;;;5058857;28;19909;-59
2023/10/11 07:25:49;;;;;;;;;;;22.10;77.00;;;;;;5057257;28;19931;-59
2023/10/11 07:28:35;;;;;;;;;;;22.30;76.10;;;;;;5059217;28;19999;-59
2023/10/11 07:31:03;;;;;;;;;;;22.50;75.90;;;;;;5058450;28;20007;-59
2023/10/11 07:33:29;;;;;;;;;;;22.40;76.70;;;;;;5058958;28;20421;-59
2023/10/11 07:35:55;;;;;;;;;;;22.50;74.90;;;;;;5059098;28;19997;-59
2023/10/11 07:38:21;;;;;;;;;;;22.60;74.30;;;;;;5058598;28;20218;-59
2023/10/11 07:40:52;;;;;;;;;;;22.80;72.70;;;;;;5054502;28;20179;-59
2023/10/11 07:43:18;;;;;;;;;;;23.10;72.30;;;;;;5059021;28;19958;-59
2023/10/11 07:45:50;;;;;;;;;;;23.80;72.80;;;;;;5051447;28;20321;-59
2023/10/11 07:48:19;;;;;;;;;;;23.80;67.10;;;;;;5058033;28;20108;-59
2023/10/11 07:50:46;;;;;;;;;;;23.50;67.80;;;;;;5056610;28;20461;-60
2023/10/11 07:53:13;;;;;;;;;;;23.30;69.10;;;;;;5058475;28;19915;-59
2023/10/11 07:55:40;;;;;;;;;;;23.50;70.80;;;;;;5051317;28;20422;-59
2023/10/11 07:58:08;;;;;;;;;;;23.70;68.00;;;;;;5051603;28;20262;-59
2023/10/11 08:00:40;;;;;;;;;;;23.20;68.40;;;;;;5039907;28;19959;-59
2023/10/11 08:03:07;;;;;;;;;;;23.50;68.40;;;;;;5057546;28;19909;-59
2023/10/11 08:05:35;;;;;;;;;;;23.90;66.80;;;;;;5057198;28;19916;-59
2023/10/11 08:08:01;;;;;;;;;;;24.40;65.10;;;;;;5050410;28;19912;-59
2023/10/11 08:10:33;;;;;;;;;;;24.20;65.50;;;;;;5043128;28;19963;-59
2023/10/11 08:13:02;;;;;;;;;;;24.70;64.70;;;;;;5037801;28;19948;-60
2023/10/11 08:15:30;;;;;;;;;;;24.60;63.80;;;;;;5038635;28;19908;-59
2023/10/11 08:17:55;;;;;;;;;;;25.40;61.60;;;;;;5055696;28;19915;-59
2023/10/11 08:20:28;;;;;;;;;;;25.80;61.10;;;;;;5058758;28;20339;-59
2023/10/11 08:22:55;;;;;;;;;;;26.30;57.80;;;;;;5058223;28;19909;-59
2023/10/11 08:25:27;;;;;;;;;;;26.20;56.80;;;;;;5058167;28;19919;-59
2023/10/11 08:28:12;;;;;;;;;;;26.40;58.40;;;;;;5055172;28;19909;-59
2023/10/11 08:30:38;;;;;;;;;;;26.40;56.40;;;;;;5047465;28;19987;-59
2023/10/11 08:33:04;;;;;;;;;;;26.50;56.20;;;;;;5038251;28;20321;-59
2023/10/11 08:35:32;;;;;;;;;;;26.80;54.50;;;;;;5056114;28;20355;-59
2023/10/11 08:38:04;;;;;;;;;;;27.20;54.10;;;;;;5055672;28;19908;-59
2023/10/11 08:40:37;;;;;;;;;;;26.90;55.30;;;;;;5057901;28;19931;-59
2023/10/11 08:43:03;;;;;;;;;;;27.50;53.10;;;;;;5051562;28;19913;-59
2023/10/11 08:45:29;;;;;;;;;;;27.30;52.50;;;;;;5042042;28;19990;-59
2023/10/11 08:47:54;;;;;;;;;;;27.20;54.00;;;;;;5038047;28;19909;-59
2023/10/11 08:50:21;;;;;;;;;;;27.70;53.00;;;;;;5037075;28;19913;-60
2023/10/11 08:52:46;;;;;;;;;;;27.30;52.40;;;;;;5039443;28;19909;-59
2023/10/11 08:55:12;;;;;;;;;;;27.30;51.00;;;;;;5056598;28;19913;-59
2023/10/11 08:57:38;;;;;;;;;;;28.10;51.40;;;;;;5057505;28;19909;-60
2023/10/11 09:00:17;;;;;;;;;;;27.90;51.60;;;;;;5049628;28;19978;-60
2023/10/11 09:02:48;;;;;;;;;;;28.50;51.20;;;;;;5037392;28;19917;-60
2023/10/11 09:05:29;;;;;;;;;;;28.00;48.80;;;;;;5037830;28;19935;-59
2023/10/11 09:07:57;;;;;;;;;;;28.50;49.00;;;;;;5065095;28;19919;-59
2023/10/11 09:10:32;;;;;;;;;;;28.70;49.00;;;;;;5056788;28;19913;-60
2023/10/11 09:13:01;;;;;;;;;;;29.00;48.20;;;;;;5056883;28;19917;-60
2023/10/11 09:15:44;;;;;;;;;;;29.20;47.30;;;;;;5056858;28;20333;-60
2023/10/11 09:18:15;;;;;;;;;;;29.30;49.10;;;;;;5056387;28;20370;-59
2023/10/11 09:20:42;;;;;;;;;;;29.80;46.50;;;;;;5053369;28;19909;-60
2023/10/11 09:23:11;;;;;;;;;;;30.40;45.70;;;;;;5055332;28;19915;-60
2023/10/11 09:25:59;;;;;;;;;;;30.30;42.80;;;;;;5056717;28;19921;-60
2023/10/11 09:28:26;;;;;;;;;;;29.90;42.50;;;;;;5054771;28;19963;-60
2023/10/11 09:31:20;;;;;;;;;;;29.30;45.80;;;;;;5055631;28;19913;-59
2023/10/11 09:33:59;;;;;;;;;;;29.60;45.20;;;;;;5057399;28;19915;-59
2023/10/11 09:36:26;;;;;;;;;;;30.40;42.50;;;;;;5056997;28;19908;-59
2023/10/11 09:38:55;;;;;;;;;;;30.40;41.20;;;;;;5056986;28;20273;-59
2023/10/11 09:41:40;;;;;;;;;;;30.60;40.70;;;;;;5057169;28;19905;-60
2023/10/11 09:44:07;;;;;;;;;;;30.60;40.80;;;;;;5056630;28;20015;-60
2023/10/11 09:46:34;;;;;;;;;;;30.30;41.00;;;;;;5057037;28;19912;-59
2023/10/11 09:49:01;;;;;;;;;;;30.10;38.00;;;;;;5057171;28;20008;-60
2023/10/11 09:51:27;;;;;;;;;;;29.50;38.80;;;;;;5056359;28;19921;-59
2023/10/11 09:53:56;;;;;;;;;;;30.00;40.90;;;;;;5056605;28;19952;-59
2023/10/11 09:56:41;;;;;;;;;;;30.60;39.70;;;;;;5056965;28;19927;-59
2023/10/11 09:59:08;;;;;;;;;;;31.00;36.70;;;;;;5055787;28;19909;-59
2023/10/11 10:01:38;;;;;;;;;;;31.30;34.30;;;;;;5055926;28;19915;-59
2023/10/11 10:04:08;;;;;;;;;;;32.00;36.60;;;;;;5055999;28;19920;-60
2023/10/11 10:06:33;;;;;;;;;;;30.60;35.30;;;;;;5055544;28;19909;-60
2023/10/11 10:09:09;;;;;;;;;;;31.00;36.30;;;;;;5055380;28;19912;-59
2023/10/11 10:11:54;;;;;;;;;;;31.40;35.10;;;;;;5056582;28;20374;-60
2023/10/11 10:14:27;;;;;;;;;;;31.10;34.20;;;;;;5053863;28;20342;-60
2023/10/11 10:17:06;;;;;;;;;;;30.80;32.80;;;;;;5056051;28;20238;-60
2023/10/11 10:19:39;;;;;;;;;;;31.00;35.00;;;;;;5042474;28;19944;-60
2023/10/11 10:22:22;;;;;;;;;;;30.80;33.70;;;;;;5043572;28;19913;-59
2023/10/11 10:24:53;;;;;;;;;;;32.00;30.90;;;;;;5056100;28;19920;-59
2023/10/11 10:27:34;;;;;;;;;;;32.00;29.40;;;;;;5056046;28;19909;-60
2023/10/11 10:30:03;;;;;;;;;;;31.80;28.90;;;;;;5055744;28;19909;-60
2023/10/11 10:32:29;;;;;;;;;;;32.20;29.10;;;;;;5055592;28;19905;-60
2023/10/11 10:35:13;;;;;;;;;;;32.50;29.70;;;;;;5042019;28;19909;-60
2023/10/11 10:37:45;;;;;;;;;;;31.90;28.10;;;;;;5035678;28;19909;-60
2023/10/11 10:40:24;;;;;;;;;;;30.60;29.60;;;;;;5035672;28;19915;-60
2023/10/11 10:43:19;;;;;;;;;;;30.10;29.70;;;;;;5035415;28;19916;-60
2023/10/11 10:45:47;;;;;;;;;;;31.00;30.90;;;;;;5035755;28;20071;-60
2023/10/11 10:48:16;;;;;;;;;;;32.20;29.00;;;;;;5035477;28;19913;-60
2023/10/11 10:50:47;;;;;;;;;;;32.50;28.60;;;;;;5034885;28;19950;-60
2023/10/11 10:53:16;;;;;;;;;;;31.20;28.40;;;;;;5035522;28;19909;-60
2023/10/11 10:55:42;;;;;;;;;;;31.50;28.20;;;;;;5035338;28;19917;-60
2023/10/11 10:58:12;;;;;;;;;;;31.50;29.10;;;;;;5035437;28;19908;-60
2023/10/11 11:00:43;;;;;;;;;;;29.90;29.30;;;;;;5035631;28;20004;-60
2023/10/11 11:03:18;;;;;;;;;;;29.90;30.40;;;;;;5035349;28;19919;-60
2023/10/11 11:05:56;;;;;;;;;;;30.90;29.40;;;;;;5048167;28;19913;-60
2023/10/11 11:08:31;;;;;;;;;;;31.60;29.50;;;;;;5055801;28;19916;-60
2023/10/11 11:11:19;;;;;;;;;;;30.90;28.80;;;;;;5055860;28;19913;-59
2023/10/11 11:13:47;;;;;;;;;;;30.30;29.80;;;;;;5055012;28;20007;-60
2023/10/11 11:16:16;;;;;;;;;;;30.10;29.90;;;;;;5055742;28;19913;-60
2023/10/11 11:18:43;;;;;;;;;;;30.40;29.80;;;;;;5055338;28;19908;-60
2023/10/11 11:21:20;;;;;;;;;;;31.10;29.50;;;;;;5054856;28;19962;-60
2023/10/11 11:23:50;;;;;;;;;;;30.10;28.50;;;;;;5053502;28;19916;-60
2023/10/11 11:26:17;;;;;;;;;;;31.10;28.70;;;;;;5055034;28;19904;-59
2023/10/11 11:28:43;;;;;;;;;;;30.20;27.10;;;;;;5053403;28;19967;-59
2023/10/11 11:31:13;;;;;;;;;;;29.50;30.70;;;;;;5048223;28;19909;-60
2023/10/11 11:36:40;;;;;;;;;;;28.40;31.00;;;;;;5033649;28;19915;-59
2023/10/11 11:39:26;;;;;;;;;;;29.90;32.20;;;;;;5046690;28;19916;-60
2023/10/11 11:41:58;;;;;;;;;;;31.00;28.90;;;;;;5054645;28;19940;-59
2023/10/11 11:44:27;;;;;;;;;;;32.20;28.10;;;;;;5055170;28;19964;-60
2023/10/11 11:46:54;;;;;;;;;;;31.90;27.40;;;;;;5056269;28;19909;-60
2023/10/11 11:49:21;;;;;;;;;;;31.30;26.30;;;;;;5051484;28;19912;-59
2023/10/11 11:51:50;;;;;;;;;;;30.40;28.40;;;;;;5057861;28;19909;-59
2023/10/11 11:54:18;;;;;;;;;;;30.40;27.90;;;;;;5059156;28;19908;-60
2023/10/11 11:56:45;;;;;;;;;;;30.50;26.30;;;;;;5058708;28;19912;-60
2023/10/11 11:59:19;;;;;;;;;;;30.90;26.40;;;;;;5057546;28;19913;-60
2023/10/11 12:01:49;;;;;;;;;;;31.30;27.00;;;;;;5059024;28;20346;-60
2023/10/11 12:04:20;;;;;;;;;;;31.10;26.40;;;;;;5057843;28;19912;-60
2023/10/11 12:06:49;;;;;;;;;;;31.80;27.40;;;;;;5057597;28;19908;-60
2023/10/11 12:09:21;;;;;;;;;;;32.00;26.70;;;;;;5055830;28;19909;-60
2023/10/11 12:11:53;;;;;;;;;;;32.50;26.00;;;;;;5057767;28;19958;-60
2023/10/11 12:14:22;;;;;;;;;;;32.40;24.60;;;;;;5057891;28;19913;-60
2023/10/11 12:16:48;;;;;;;;;;;31.90;24.80;;;;;;5055498;28;19915;-60
2023/10/11 12:19:15;;;;;;;;;;;30.90;25.70;;;;;;5047267;28;20281;-59
2023/10/11 12:21:41;;;;;;;;;;;30.20;28.10;;;;;;5048760;28;19915;-59
2023/10/11 12:24:11;;;;;;;;;;;31.10;26.80;;;;;;5048067;28;20271;-60
2023/10/11 12:26:42;;;;;;;;;;;31.40;25.90;;;;;;5047418;28;20382;-60
2023/10/11 12:29:09;;;;;;;;;;;31.30;24.90;;;;;;5048608;28;19915;-60
2023/10/11 12:31:38;;;;;;;;;;;31.30;25.30;;;;;;5047220;28;19932;-60
2023/10/11 12:34:09;;;;;;;;;;;30.60;27.80;;;;;;5050039;28;20354;-60
2023/10/11 12:36:45;;;;;;;;;;;31.30;26.10;;;;;;5050601;28;19909;-60
2023/10/11 12:39:20;;;;;;;;;;;31.20;25.40;;;;;;5046271;28;19999;-60
2023/10/11 12:41:51;;;;;;;;;;;30.70;25.40;;;;;;5056782;28;19940;-60
2023/10/11 12:44:17;;;;;;;;;;;31.40;26.00;;;;;;5055163;28;19917;-60
2023/10/11 12:46:44;;;;;;;;;;;31.60;23.20;;;;;;5049226;28;19909;-60
2023/10/11 12:49:13;;;;;;;;;;;31.70;23.10;;;;;;5046863;28;20050;-60
2023/10/11 12:51:42;;;;;;;;;;;32.10;24.30;;;;;;5049257;28;20378;-60
2023/10/11 12:54:11;;;;;;;;;;;30.90;25.00;;;;;;5046407;28;19908;-60
2023/10/11 12:56:37;;;;;;;;;;;30.60;25.20;;;;;;5050266;28;20003;-60
2023/10/11 12:59:06;;;;;;;;;;;30.80;27.20;;;;;;5047245;28;20300;-60
2023/10/11 13:01:42;;;;;;;;;;;30.60;24.90;;;;;;5048202;28;19917;-60
2023/10/11 13:04:17;;;;;;;;;;;30.40;24.90;;;;;;5054004;28;20011;-60
2023/10/11 13:06:49;;;;;;;;;;;30.40;24.90;;;;;;5057267;28;20270;-60
2023/10/11 13:09:16;;;;;;;;;;;30.60;26.10;;;;;;5057142;28;19927;-60
2023/10/11 13:11:45;;;;;;;;;;;30.70;28.10;;;;;;5056957;28;20378;-60
2023/10/11 13:14:18;;;;;;;;;;;30.90;24.80;;;;;;5056807;28;20394;-60
2023/10/11 13:16:45;;;;;;;;;;;31.10;23.70;;;;;;5057030;28;19976;-60
2023/10/11 13:19:12;;;;;;;;;;;30.20;24.20;;;;;;5055982;28;19916;-60
2023/10/11 13:21:43;;;;;;;;;;;29.20;24.80;;;;;;5055461;28;19970;-60
2023/10/11 13:24:09;;;;;;;;;;;28.40;27.50;;;;;;5055126;28;19913;-60
2023/10/11 13:26:35;;;;;;;;;;;29.20;29.50;;;;;;5055288;28;19987;-60
2023/10/11 13:29:01;;;;;;;;;;;30.10;28.60;;;;;;5054972;28;19943;-60
2023/10/11 13:31:29;;;;;;;;;;;30.10;26.90;;;;;;5056731;28;20297;-60
2023/10/11 13:33:55;;;;;;;;;;;29.10;26.90;;;;;;5055199;28;19913;-60
2023/10/11 13:36:21;;;;;;;;;;;29.80;28.40;;;;;;5056883;28;19968;-60
2023/10/11 13:38:47;;;;;;;;;;;30.30;26.60;;;;;;5056816;28;19940;-60
2023/10/11 13:41:13;;;;;;;;;;;29.80;24.80;;;;;;5056845;28;19912;-60
2023/10/11 13:43:39;;;;;;;;;;;30.20;23.50;;;;;;5056234;28;19908;-60
2023/10/11 13:46:10;;;;;;;;;;;29.80;24.10;;;;;;5056628;28;20339;-60
2023/10/11 13:48:43;;;;;;;;;;;29.90;25.20;;;;;;5056345;28;19909;-60
2023/10/11 13:51:16;;;;;;;;;;;30.10;25.50;;;;;;5056639;28;19916;-60
2023/10/11 13:53:42;;;;;;;;;;;29.30;25.10;;;;;;5056710;28;20043;-60
2023/10/11 13:56:31;;;;;;;;;;;28.60;27.10;;;;;;5056196;28;19936;-60
2023/10/11 13:58:57;;;;;;;;;;;28.50;27.40;;;;;;5056715;28;20366;-60
2023/10/11 14:04:40;;;;;;;;;;;29.00;26.80;;;;;;5056381;28;19913;-60
2023/10/11 14:09:46;;;;;;;;;;;28.60;28.10;;;;;;5055719;28;20358;-60
2023/10/11 14:12:17;;;;;;;;;;;28.40;27.20;;;;;;5038263;28;19932;-60
2023/10/11 14:14:43;;;;;;;;;;;28.10;27.80;;;;;;5056187;28;20007;-60
2023/10/11 14:17:15;;;;;;;;;;;27.80;28.60;;;;;;5055837;28;19944;-60
2023/10/11 14:19:41;;;;;;;;;;;28.00;29.80;;;;;;5056481;28;19908;-60
2023/10/11 14:22:07;;;;;;;;;;;27.90;29.80;;;;;;5056138;28;20003;-60
2023/10/11 14:24:33;;;;;;;;;;;28.00;29.40;;;;;;5055762;28;19974;-60
2023/10/11 14:27:01;;;;;;;;;;;27.90;27.80;;;;;;5056066;28;19912;-60
2023/10/11 14:29:27;;;;;;;;;;;27.70;29.10;;;;;;5056007;28;19909;-60
2023/10/11 14:31:53;;;;;;;;;;;27.40;30.70;;;;;;5055674;28;19920;-60
2023/10/11 14:34:19;;;;;;;;;;;27.50;31.50;;;;;;5055947;28;19909;-60
2023/10/11 14:36:47;;;;;;;;;;;27.70;32.20;;;;;;5055973;28;19991;-60
2023/10/11 14:39:19;;;;;;;;;;;27.50;30.30;;;;;;5055870;28;19913;-60
2023/10/11 14:41:51;;;;;;;;;;;27.50;29.70;;;;;;5055560;28;19913;-60
2023/10/11 14:44:17;;;;;;;;;;;27.40;31.40;;;;;;5055581;28;19999;-60
2023/10/11 14:46:44;;;;;;;;;;;27.30;31.00;;;;;;5055682;28;20399;-60
2023/10/11 14:49:11;;;;;;;;;;;27.40;30.50;;;;;;5055822;28;19909;-60
2023/10/11 14:51:39;;;;;;;;;;;27.50;33.20;;;;;;5037859;28;19909;-59
2023/10/11 14:54:05;;;;;;;;;;;27.10;34.60;;;;;;5055693;28;19959;-60
2023/10/11 14:56:31;;;;;;;;;;;27.00;33.40;;;;;;5055572;28;19904;-60
2023/10/11 14:58:58;;;;;;;;;;;26.80;35.00;;;;;;5055654;28;20310;-60
2023/10/11 15:01:25;;;;;;;;;;;26.70;36.00;;;;;;5055703;28;19909;-60
2023/10/11 15:03:50;;;;;;;;;;;26.70;36.00;;;;;;5055419;28;19919;-60
2023/10/11 15:06:19;;;;;;;;;;;26.40;35.70;;;;;;5055668;28;19909;-60
2023/10/11 15:08:45;;;;;;;;;;;26.20;37.20;;;;;;5055570;28;19912;-59
2023/10/11 15:11:12;;;;;;;;;;;26.10;37.60;;;;;;5055331;28;19912;-60
2023/10/11 15:13:38;;;;;;;;;;;25.70;36.40;;;;;;5055460;28;19908;-60